Time;durP1;ratioP1;P1;durP2;ratioP2;P2;SDS_P1;SDS_P2;PMS_P1;PMS_P2;Temp;Humidity;BMP_temperature;BMP_pressure;BME280_temperature;BME280_humidity;BME280_pressure;Samples;Min_cycle;Max_cycle;Signal;HPM_P1;HPM_P2
2022/02/24 00:00:33;;;;;;;8.38;3.72;;;3.50;99.90;;;;;;1850588;77;21083;-87
2022/02/24 00:03:01;;;;;;;5.45;3.70;;;3.40;99.90;;;;;;1850601;77;21170;-86
2022/02/24 00:05:28;;;;;;;14.73;5.58;;;3.40;99.90;;;;;;1850686;77;21115;-87
2022/02/24 00:07:59;;;;;;;10.95;5.45;;;3.40;99.90;;;;;;1850411;77;21234;-87
2022/02/24 00:10:30;;;;;;;10.38;5.25;;;3.40;99.90;;;;;;1858969;76;21092;-86
2022/02/24 00:12:57;;;;;;;8.20;4.87;;;3.40;99.90;;;;;;1857954;75;21069;-87
2022/02/24 00:15:24;;;;;;;9.93;5.03;;;3.50;99.90;;;;;;1851222;76;21022;-84
2022/02/24 00:17:52;;;;;;;10.23;5.33;;;3.50;99.90;;;;;;1851317;76;21049;-84
2022/02/24 00:20:40;;;;;;;13.43;4.92;;;3.60;99.90;;;;;;1851170;77;21458;-84
2022/02/24 00:23:07;;;;;;;11.45;4.70;;;3.50;99.90;;;;;;1831897;78;21127;-85
2022/02/24 00:25:34;;;;;;;8.75;4.45;;;3.60;99.90;;;;;;1842877;76;21178;-85
2022/02/24 00:28:05;;;;;;;7.62;4.40;;;3.70;99.90;;;;;;1842091;78;21477;-86
2022/02/24 00:30:32;;;;;;;;;;;3.70;99.90;;;;;;1769667;81;21541;-86
2022/02/24 00:33:18;;;;;;;7.00;4.10;;;3.70;99.90;;;;;;1790435;79;20108;-85
2022/02/24 00:35:46;;;;;;;5.40;3.50;;;3.70;99.90;;;;;;1873791;77;21518;-85
2022/02/24 00:38:15;;;;;;;9.08;3.75;;;3.90;99.90;;;;;;1874172;77;21025;-85
2022/02/24 00:40:44;;;;;;;10.72;3.50;;;3.90;99.90;;;;;;1874144;77;21021;-84
2022/02/24 00:43:15;;;;;;;5.47;3.75;;;3.90;99.90;;;;;;1873970;77;21574;-85
2022/02/24 00:45:48;;;;;;;5.30;3.10;;;3.80;99.90;;;;;;1879149;75;21069;-86
2022/02/24 00:48:16;;;;;;;6.35;3.90;;;3.80;99.90;;;;;;1875204;75;21093;-85
2022/02/24 00:50:46;;;;;;;10.55;3.98;;;3.70;99.90;;;;;;1876423;75;21497;-85
2022/02/24 00:53:16;;;;;;;6.85;3.62;;;3.70;99.90;;;;;;1879368;75;21151;-85
2022/02/24 00:55:46;;;;;;;5.95;3.35;;;3.80;99.90;;;;;;1875674;76;21109;-85
2022/02/24 00:58:21;;;;;;;5.80;3.45;;;3.90;99.90;;;;;;1874452;76;21041;-84
2022/02/24 01:00:48;;;;;;;10.70;4.50;;;3.90;99.90;;;;;;1875053;76;21097;-85
2022/02/24 01:03:16;;;;;;;7.80;3.72;;;3.90;99.90;;;;;;1882476;75;21087;-85
2022/02/24 01:05:43;;;;;;;8.25;4.25;;;3.90;99.90;;;;;;1882262;75;21090;-84
2022/02/24 01:08:14;;;;;;;8.83;4.47;;;3.90;99.90;;;;;;1880037;75;21084;-85
2022/02/24 01:10:41;;;;;;;10.08;4.65;;;4.10;99.90;;;;;;1875813;75;21521;-85
2022/02/24 01:13:10;;;;;;;10.20;5.17;;;4.00;99.90;;;;;;1879948;75;21480;-86
2022/02/24 01:15:38;;;;;;;18.70;4.78;;;4.00;99.90;;;;;;1879250;75;21111;-86
2022/02/24 01:18:10;;;;;;;8.35;4.50;;;3.90;99.90;;;;;;1878669;75;21208;-86
2022/02/24 01:20:41;;;;;;;9.18;4.75;;;3.90;99.90;;;;;;1877900;75;21125;-86
2022/02/24 01:23:09;;;;;;;13.53;4.50;;;3.90;99.90;;;;;;1877418;75;21057;-87
2022/02/24 01:25:38;;;;;;;7.00;4.60;;;3.80;99.90;;;;;;1877894;75;21224;-84
2022/02/24 01:28:05;;;;;;;7.87;4.55;;;3.80;99.90;;;;;;1844224;75;21626;-85
2022/02/24 01:30:32;;;;;;;8.05;4.53;;;3.90;99.90;;;;;;1878762;75;21219;-87
2022/02/24 01:33:00;;;;;;;9.65;5.17;;;3.90;99.90;;;;;;1879091;75;21544;-86
2022/02/24 01:35:27;;;;;;;5.75;3.77;;;3.90;99.90;;;;;;1878997;75;21073;-87
2022/02/24 01:37:54;;;;;;;8.43;4.37;;;3.90;99.90;;;;;;1877992;75;21080;-87
2022/02/24 01:40:25;;;;;;;7.55;4.60;;;4.00;99.90;;;;;;1875856;76;21072;-85
2022/02/24 01:42:52;;;;;;;7.25;4.30;;;3.90;99.90;;;;;;1880086;75;21115;-86
2022/02/24 01:45:19;;;;;;;13.85;5.03;;;3.90;99.90;;;;;;1876950;75;21288;-86
2022/02/24 01:47:46;;;;;;;8.68;4.65;;;3.80;99.90;;;;;;1880259;75;21254;-87
2022/02/24 01:50:14;;;;;;;10.82;4.80;;;3.90;99.90;;;;;;1877563;75;21076;-87
2022/02/24 01:52:41;;;;;;;11.45;4.92;;;3.80;99.90;;;;;;1876604;75;21602;-86
2022/02/24 01:55:09;;;;;;;12.85;5.00;;;3.80;99.90;;;;;;1875533;75;21057;-86
2022/02/24 01:57:36;;;;;;;19.65;5.12;;;3.70;99.90;;;;;;1881944;75;21073;-86
2022/02/24 02:00:07;;;;;;;10.05;4.85;;;3.80;99.90;;;;;;1876830;75;21114;-86
2022/02/24 02:02:35;;;;;;;10.25;4.33;;;3.80;99.90;;;;;;1873347;77;21072;-86
2022/02/24 02:05:03;;;;;;;11.65;4.33;;;3.80;99.90;;;;;;1874136;77;21127;-85
2022/02/24 02:07:30;;;;;;;7.87;4.37;;;3.60;99.90;;;;;;1874223;77;21053;-86
2022/02/24 02:09:58;;;;;;;8.03;5.03;;;3.40;99.90;;;;;;1874245;77;21173;-85
2022/02/24 02:12:25;;;;;;;8.00;4.80;;;3.40;99.90;;;;;;1840829;77;21037;-85
2022/02/24 02:14:53;;;;;;;6.17;4.85;;;3.40;99.90;;;;;;1875285;77;21091;-85
2022/02/24 02:17:20;;;;;;;8.33;4.85;;;3.30;99.90;;;;;;1875373;77;21136;-86
2022/02/24 02:19:47;;;;;;;9.30;4.67;;;3.30;99.90;;;;;;1874494;77;21053;-85
2022/02/24 02:22:15;;;;;;;9.00;5.00;;;3.20;99.90;;;;;;1874267;77;21091;-86
2022/02/24 02:24:46;;;;;;;11.22;4.58;;;3.20;99.90;;;;;;1874348;77;21150;-85
2022/02/24 02:27:14;;;;;;;5.85;4.10;;;3.20;99.90;;;;;;1859338;75;21449;-85
2022/02/24 02:29:41;;;;;;;8.10;4.78;;;3.20;99.90;;;;;;1874566;77;21122;-85
2022/02/24 02:32:08;;;;;;;12.88;4.78;;;3.20;99.90;;;;;;1873703;77;21087;-84
2022/02/24 02:34:36;;;;;;;10.80;5.05;;;3.30;99.90;;;;;;1872944;77;21048;-85
2022/02/24 02:37:03;;;;;;;5.17;3.80;;;3.20;99.90;;;;;;1872644;77;21045;-84
2022/02/24 02:39:30;;;;;;;9.13;4.40;;;3.30;99.90;;;;;;1872574;77;21075;-85
2022/02/24 02:42:00;;;;;;;5.97;3.98;;;3.20;99.90;;;;;;1872730;77;21045;-85
2022/02/24 02:44:27;;;;;;;7.03;4.03;;;3.20;99.90;;;;;;1872609;76;21068;-84
2022/02/24 02:46:54;;;;;;;11.20;3.85;;;3.30;99.90;;;;;;1872729;76;21122;-85
2022/02/24 02:49:21;;;;;;;7.70;3.98;;;3.30;99.90;;;;;;1872669;77;21162;-85
2022/02/24 02:51:49;;;;;;;7.62;4.60;;;3.30;99.90;;;;;;1872602;77;21048;-85
2022/02/24 02:54:16;;;;;;;8.83;4.15;;;3.30;99.90;;;;;;1872670;77;21081;-84
2022/02/24 02:56:44;;;;;;;7.95;5.00;;;3.30;99.90;;;;;;1872640;77;21137;-85
2022/02/24 02:59:11;;;;;;;15.98;5.12;;;3.40;99.90;;;;;;1872608;77;21153;-86
2022/02/24 03:01:39;;;;;;;8.15;4.70;;;3.30;99.90;;;;;;1838980;77;21037;-84
2022/02/24 03:04:07;;;;;;;7.47;4.08;;;3.30;99.90;;;;;;1891358;76;21069;-84
2022/02/24 03:06:34;;;;;;;12.68;5.10;;;3.30;99.90;;;;;;1872587;77;21053;-81
2022/02/24 03:09:01;;;;;;;12.30;5.25;;;3.30;99.90;;;;;;1872542;77;21080;-83
2022/02/24 03:11:28;;;;;;;8.08;4.95;;;3.30;99.90;;;;;;1839020;77;21037;-83
2022/02/24 03:13:56;;;;;;;7.45;4.60;;;3.30;99.90;;;;;;1872573;76;21460;-83
2022/02/24 03:16:25;;;;;;;6.22;4.20;;;3.30;99.90;;;;;;1872609;77;21045;-84
2022/02/24 03:18:52;;;;;;;19.32;5.12;;;3.30;99.90;;;;;;1872599;76;21098;-86
2022/02/24 03:21:19;;;;;;;9.30;5.10;;;3.30;99.90;;;;;;1872607;77;21106;-84
2022/02/24 03:23:49;;;;;;;8.48;4.85;;;3.30;99.90;;;;;;1872755;77;21041;-82
2022/02/24 03:26:17;;;;;;;7.20;4.37;;;3.30;99.90;;;;;;1873442;75;21108;-85
2022/02/24 03:28:45;;;;;;;7.20;4.17;;;3.30;99.90;;;;;;1873423;76;21076;-85
2022/02/24 03:31:12;;;;;;;12.73;4.25;;;3.30;99.90;;;;;;1872878;77;21064;-84
2022/02/24 03:33:39;;;;;;;13.22;5.35;;;3.40;99.90;;;;;;1872518;77;21048;-82
2022/02/24 03:36:06;;;;;;;5.90;4.25;;;3.40;99.90;;;;;;1839109;77;21142;-85
2022/02/24 03:38:34;;;;;;;8.25;4.25;;;3.50;99.90;;;;;;1872486;77;21041;-84
2022/02/24 03:41:01;;;;;;;14.98;5.03;;;3.50;99.90;;;;;;1872588;77;21060;-81
2022/02/24 03:43:28;;;;;;;15.32;4.03;;;3.60;99.90;;;;;;1872518;77;21107;-84
2022/02/24 03:45:56;;;;;;;9.05;5.10;;;3.70;99.90;;;;;;1872633;77;21414;-83
2022/02/24 03:48:23;;;;;;;17.50;4.45;;;3.60;99.90;;;;;;1872436;77;21057;-82
2022/02/24 03:50:50;;;;;;;8.83;4.25;;;3.70;99.90;;;;;;1872577;77;21045;-82
2022/02/24 03:53:18;;;;;;;7.62;4.55;;;3.70;99.90;;;;;;1872683;77;21048;-85
2022/02/24 03:55:45;;;;;;;8.25;4.58;;;3.70;99.90;;;;;;1872584;77;21023;-84
2022/02/24 03:58:12;;;;;;;6.22;4.17;;;3.80;99.90;;;;;;1872752;77;21096;-85
2022/02/24 04:00:40;;;;;;;6.25;4.03;;;3.70;99.90;;;;;;1872484;77;21040;-84
2022/02/24 04:03:08;;;;;;;14.13;4.80;;;3.60;99.90;;;;;;1872529;77;21045;-84
2022/02/24 04:05:36;;;;;;;6.95;3.92;;;3.40;99.90;;;;;;1872616;77;21139;-86
2022/02/24 04:08:03;;;;;;;11.38;4.25;;;3.30;99.90;;;;;;1872769;77;21068;-84
2022/02/24 04:10:31;;;;;;;8.50;4.70;;;3.40;99.90;;;;;;1872781;77;21319;-83
2022/02/24 04:12:58;;;;;;;14.50;4.08;;;3.30;99.90;;;;;;1872570;77;21425;-83
2022/02/24 04:15:25;;;;;;;10.10;4.60;;;3.30;99.90;;;;;;1872715;77;21052;-82
2022/02/24 04:17:52;;;;;;;5.47;3.90;;;3.30;99.90;;;;;;1872594;77;21091;-83
2022/02/24 04:20:20;;;;;;;7.35;4.03;;;3.30;99.90;;;;;;1872704;77;21115;-83
2022/02/24 04:22:47;;;;;;;9.68;4.78;;;3.30;99.90;;;;;;1872861;77;21045;-84
2022/02/24 04:25:15;;;;;;;9.10;4.50;;;3.20;99.90;;;;;;1872978;77;21469;-83
2022/02/24 04:27:49;;;;;;;9.95;4.80;;;3.10;99.90;;;;;;1841892;76;21154;-83
2022/02/24 04:30:17;;;;;;;5.83;4.22;;;3.10;99.90;;;;;;1874802;76;21486;-83
2022/02/24 04:32:44;;;;;;;7.30;4.92;;;3.10;99.90;;;;;;1872822;77;21057;-84
2022/02/24 04:35:14;;;;;;;9.08;5.15;;;3.00;99.90;;;;;;1873125;77;21052;-84
2022/02/24 04:37:41;;;;;;;9.53;5.35;;;3.00;99.90;;;;;;1872994;77;21204;-82
2022/02/24 04:40:09;;;;;;;6.72;4.50;;;3.00;99.90;;;;;;1872848;77;21053;-84
2022/02/24 04:42:36;;;;;;;10.23;5.22;;;3.10;99.90;;;;;;1873008;77;21057;-85
2022/02/24 04:45:04;;;;;;;7.92;4.22;;;2.90;99.90;;;;;;1872778;77;21052;-83
2022/02/24 04:47:31;;;;;;;7.60;4.67;;;3.00;99.90;;;;;;1872915;77;21127;-83
2022/02/24 04:49:58;;;;;;;11.97;5.08;;;2.90;99.90;;;;;;1872869;77;21119;-83
2022/02/24 04:52:26;;;;;;;8.40;5.05;;;3.00;99.90;;;;;;1872589;77;21114;-84
2022/02/24 04:54:53;;;;;;;9.38;4.90;;;3.00;99.90;;;;;;1872567;77;21167;-84
2022/02/24 04:57:20;;;;;;;8.45;5.15;;;3.00;99.90;;;;;;1872681;77;21061;-84
2022/02/24 04:59:47;;;;;;;9.88;4.90;;;3.00;99.90;;;;;;1872687;76;21169;-83
2022/02/24 05:02:15;;;;;;;9.20;5.12;;;3.00;99.90;;;;;;1872666;77;21444;-84
2022/02/24 05:04:44;;;;;;;14.60;5.50;;;3.10;99.90;;;;;;1872718;77;21141;-82
2022/02/24 05:07:11;;;;;;;9.18;5.25;;;3.10;99.90;;;;;;1872695;77;21108;-84
2022/02/24 05:09:59;;;;;;;7.17;4.92;;;3.10;99.90;;;;;;1872653;77;21472;-84
2022/02/24 05:12:27;;;;;;;8.68;4.85;;;3.20;99.90;;;;;;1935534;72;21145;-84
2022/02/24 05:14:54;;;;;;;8.58;5.20;;;3.10;99.90;;;;;;1939885;73;21033;-84
2022/02/24 05:17:21;;;;;;;9.53;4.70;;;3.10;99.90;;;;;;1939874;74;21024;-83
2022/02/24 05:19:52;;;;;;;8.98;4.90;;;3.00;99.90;;;;;;1939670;73;21525;-78
2022/02/24 05:22:19;;;;;;;;;;;3.00;99.90;;;;;;1979374;72;21101;-81
2022/02/24 05:24:46;;;;;;;9.03;4.58;;;2.90;99.90;;;;;;1913259;73;20153;-80
2022/02/24 05:27:13;;;;;;;7.15;4.45;;;2.90;99.90;;;;;;1942927;73;21107;-81
2022/02/24 05:29:40;;;;;;;7.80;5.12;;;2.90;99.90;;;;;;1939493;74;21565;-82
2022/02/24 05:32:09;;;;;;;12.15;4.67;;;2.80;99.90;;;;;;1939627;74;21032;-81
2022/02/24 05:34:36;;;;;;;7.47;4.67;;;2.80;99.90;;;;;;1936086;72;21477;-81
2022/02/24 05:37:04;;;;;;;8.53;4.87;;;2.80;99.90;;;;;;1939621;74;21008;-80
2022/02/24 05:39:31;;;;;;;7.70;4.50;;;2.80;99.90;;;;;;1939573;73;21113;-80
2022/02/24 05:42:00;;;;;;;8.45;4.42;;;2.80;99.90;;;;;;1933288;72;21048;-81
2022/02/24 05:44:28;;;;;;;6.40;3.98;;;2.80;99.90;;;;;;1939560;74;21159;-83
2022/02/24 05:46:56;;;;;;;12.75;4.83;;;2.70;99.90;;;;;;1939556;73;21428;-83
2022/02/24 05:49:23;;;;;;;10.32;4.53;;;2.60;99.90;;;;;;1939473;73;21183;-81
2022/02/24 05:51:50;;;;;;;10.60;5.35;;;2.60;99.90;;;;;;1939580;74;21494;-82
2022/02/24 05:54:18;;;;;;;10.43;4.28;;;2.60;99.90;;;;;;1939690;74;21036;-81
2022/02/24 05:56:46;;;;;;;10.95;5.53;;;2.60;99.90;;;;;;1939887;74;21093;-82
2022/02/24 05:59:13;;;;;;;7.80;4.50;;;2.60;99.90;;;;;;1939515;74;21032;-81
2022/02/24 06:01:41;;;;;;;9.88;5.20;;;2.60;99.90;;;;;;1939662;74;21202;-83
2022/02/24 06:04:10;;;;;;;12.47;4.97;;;2.60;99.90;;;;;;1939631;74;21027;-79
2022/02/24 06:06:37;;;;;;;23.65;5.45;;;2.60;99.90;;;;;;1939654;74;21125;-80
2022/02/24 06:09:04;;;;;;;12.45;4.83;;;2.60;99.90;;;;;;1939649;74;21102;-80
2022/02/24 06:11:34;;;;;;;7.60;4.50;;;2.50;99.90;;;;;;1939525;72;21133;-81
2022/02/24 06:14:01;;;;;;;10.82;5.12;;;2.60;99.90;;;;;;1939535;73;21128;-79
2022/02/24 06:16:28;;;;;;;12.05;5.53;;;2.60;99.90;;;;;;1939517;74;21000;-80
2022/02/24 06:18:55;;;;;;;26.30;5.35;;;2.60;99.90;;;;;;1939547;73;21109;-78
2022/02/24 06:21:23;;;;;;;16.80;5.15;;;2.60;99.90;;;;;;1939499;74;21101;-80
2022/02/24 06:23:50;;;;;;;9.93;5.22;;;2.60;99.90;;;;;;1939769;74;21579;-78
2022/02/24 06:26:19;;;;;;;12.10;5.12;;;2.60;99.90;;;;;;1919108;74;20997;-80
2022/02/24 06:28:46;;;;;;;9.48;5.58;;;2.60;99.90;;;;;;1939632;74;21097;-80
2022/02/24 06:31:13;;;;;;;11.65;5.40;;;2.50;99.90;;;;;;1939625;74;21044;-82
2022/02/24 06:33:41;;;;;;;8.73;4.85;;;2.50;99.90;;;;;;1939825;74;21079;-83
2022/02/24 06:36:08;;;;;;;7.12;4.60;;;2.50;99.90;;;;;;1939666;74;21405;-75
2022/02/24 06:38:35;;;;;;;9.18;5.45;;;2.60;99.90;;;;;;1948985;73;21129;-75
2022/02/24 06:41:03;;;;;;;10.78;5.35;;;2.70;99.90;;;;;;1940612;73;21064;-76
2022/02/24 06:43:30;;;;;;;12.25;5.17;;;2.80;99.90;;;;;;1939715;73;21133;-74
2022/02/24 06:45:57;;;;;;;11.83;5.62;;;2.80;99.90;;;;;;1939715;74;21028;-73
2022/02/24 06:48:27;;;;;;;10.80;5.67;;;2.80;99.90;;;;;;1939731;74;21118;-74
2022/02/24 06:50:54;;;;;;;9.40;5.58;;;2.90;99.90;;;;;;1940000;72;21146;-75
2022/02/24 06:53:21;;;;;;;10.72;6.17;;;2.90;99.90;;;;;;1939561;74;21071;-75
2022/02/24 06:55:48;;;;;;;11.30;5.60;;;2.90;99.90;;;;;;1939591;74;21039;-75
2022/02/24 06:58:15;;;;;;;9.53;6.03;;;3.00;99.90;;;;;;1950412;72;21063;-74
2022/02/24 07:00:43;;;;;;;10.43;5.53;;;3.10;99.90;;;;;;1939664;73;21047;-75
2022/02/24 07:03:10;;;;;;;7.17;4.70;;;3.10;99.90;;;;;;1943035;73;21620;-76
2022/02/24 07:05:37;;;;;;;18.17;6.10;;;3.30;99.90;;;;;;1939725;74;21106;-76
2022/02/24 07:08:05;;;;;;;11.12;5.22;;;3.30;99.90;;;;;;1939876;74;21028;-76
2022/02/24 07:10:32;;;;;;;9.73;5.50;;;3.50;99.90;;;;;;1939765;74;21452;-76
2022/02/24 07:13:01;;;;;;;7.97;4.80;;;3.50;99.90;;;;;;1939814;74;21102;-75
2022/02/24 07:15:28;;;;;;;12.98;5.12;;;3.50;99.90;;;;;;1934798;72;21054;-75
2022/02/24 07:17:56;;;;;;;8.93;4.65;;;3.50;99.90;;;;;;1939974;72;21040;-76
2022/02/24 07:20:23;;;;;;;7.58;5.05;;;3.40;99.90;;;;;;1939936;74;21152;-76
2022/02/24 07:22:50;;;;;;;9.85;5.10;;;3.50;99.90;;;;;;1940217;74;21055;-75
2022/02/24 07:25:18;;;;;;;9.90;4.87;;;3.50;99.90;;;;;;1934599;72;21048;-76
2022/02/24 07:27:45;;;;;;;8.78;5.10;;;3.60;99.90;;;;;;1940394;74;21024;-76
2022/02/24 07:30:13;;;;;;;12.43;4.90;;;3.70;99.90;;;;;;1940487;74;21039;-75
2022/02/24 07:32:40;;;;;;;8.85;5.28;;;3.60;99.90;;;;;;1940327;73;21440;-75
2022/02/24 07:35:08;;;;;;;15.45;5.55;;;3.60;99.90;;;;;;1940167;74;21443;-75
2022/02/24 07:37:36;;;;;;;14.60;5.28;;;3.50;99.90;;;;;;1940086;74;21130;-74
2022/02/24 07:40:49;;;;;;;17.48;5.87;;;3.50;99.90;;;;;;1940017;74;21037;-75
2022/02/24 07:43:16;;;;;;;11.50;5.95;;;3.50;99.90;;;;;;1939876;73;21047;-75
2022/02/24 07:45:44;;;;;;;12.30;5.58;;;3.60;99.90;;;;;;1941414;74;21027;-75
2022/02/24 07:48:11;;;;;;;14.23;6.37;;;3.70;99.90;;;;;;1941390;74;21071;-74
2022/02/24 07:50:39;;;;;;;10.45;5.80;;;3.70;99.90;;;;;;1942226;74;21394;-75
2022/02/24 07:53:06;;;;;;;19.90;6.28;;;3.70;99.90;;;;;;1941208;74;21117;-75
2022/02/24 07:55:33;;;;;;;20.35;6.83;;;3.70;99.90;;;;;;1939824;74;21024;-75
2022/02/24 07:58:01;;;;;;;9.58;6.12;;;3.70;99.90;;;;;;1940084;74;21589;-74
2022/02/24 08:00:28;;;;;;;13.35;6.12;;;3.80;99.90;;;;;;1939903;72;21129;-75
2022/02/24 08:02:55;;;;;;;15.43;6.47;;;3.90;99.90;;;;;;1939487;73;21457;-75
2022/02/24 08:05:23;;;;;;;13.20;6.92;;;4.00;99.90;;;;;;1952266;73;21129;-76
2022/02/24 08:07:50;;;;;;;14.83;7.67;;;4.00;99.90;;;;;;1953129;73;21125;-75
2022/02/24 08:10:17;;;;;;;16.85;6.85;;;4.10;99.90;;;;;;1933726;72;21065;-76
2022/02/24 08:12:45;;;;;;;10.20;6.08;;;4.20;99.90;;;;;;1940031;73;21040;-75
2022/02/24 08:15:14;;;;;;;17.50;6.62;;;4.30;99.90;;;;;;1939813;74;21021;-76
2022/02/24 08:17:42;;;;;;;14.30;6.55;;;4.40;99.90;;;;;;1940138;74;21056;-75
2022/02/24 08:20:10;;;;;;;12.98;6.30;;;4.50;99.90;;;;;;1937207;74;21067;-76
2022/02/24 08:22:39;;;;;;;13.68;6.97;;;4.50;99.90;;;;;;1939839;73;21042;-76
2022/02/24 08:25:10;;;;;;;11.95;6.58;;;4.60;99.90;;;;;;1910430;74;21036;-75
2022/02/24 08:27:39;;;;;;;14.95;8.13;;;4.70;99.90;;;;;;1939129;72;21549;-75
2022/02/24 08:30:09;;;;;;;18.10;7.90;;;4.80;99.90;;;;;;1939844;74;21063;-76
2022/02/24 08:32:36;;;;;;;;;;;5.00;99.90;;;;;;1942930;74;21105;-74
2022/02/24 08:35:05;;;;;;;13.83;7.30;;;5.20;99.90;;;;;;1939632;73;20185;-75
2022/02/24 08:37:32;;;;;;;17.82;6.90;;;5.30;99.90;;;;;;1933812;72;21065;-75
2022/02/24 08:40:00;;;;;;;7.78;5.37;;;5.50;99.90;;;;;;1935943;72;21126;-75
2022/02/24 08:42:27;;;;;;;9.68;5.35;;;5.80;99.90;;;;;;1942005;72;21149;-73
2022/02/24 08:44:56;;;;;;;5.47;3.92;;;5.80;99.90;;;;;;1939809;74;21033;-77
2022/02/24 08:47:24;;;;;;;7.50;4.58;;;5.90;99.90;;;;;;1939757;74;21032;-75
2022/02/24 08:49:51;;;;;;;6.65;4.65;;;6.10;99.90;;;;;;1944073;72;21300;-74
2022/02/24 08:52:18;;;;;;;9.03;4.62;;;6.40;99.90;;;;;;1939743;73;21001;-74
2022/02/24 08:54:46;;;;;;;7.50;4.03;;;6.50;99.90;;;;;;1939735;74;21009;-74
2022/02/24 08:57:15;;;;;;;9.98;4.90;;;6.60;99.90;;;;;;1939992;74;21029;-74
2022/02/24 08:59:43;;;;;;;11.35;5.25;;;6.80;99.90;;;;;;1939906;73;21509;-74
2022/02/24 09:02:17;;;;;;;9.60;4.62;;;6.90;99.90;;;;;;1940112;74;21059;-81
2022/02/24 09:04:44;;;;;;;7.95;4.72;;;7.00;99.90;;;;;;1939932;74;21009;-74
2022/02/24 09:07:11;;;;;;;10.50;4.17;;;7.10;99.90;;;;;;1939786;74;21580;-75
2022/02/24 09:09:39;;;;;;;7.50;4.50;;;7.30;99.90;;;;;;1939971;73;21417;-76
2022/02/24 09:12:06;;;;;;;12.80;4.67;;;7.60;99.90;;;;;;1939858;74;21009;-74
2022/02/24 09:14:35;;;;;;;10.82;4.25;;;7.90;99.90;;;;;;1939660;74;21047;-76
2022/02/24 09:17:03;;;;;;;7.45;4.47;;;8.40;99.90;;;;;;1939704;73;21036;-77
2022/02/24 09:19:31;;;;;;;6.85;4.62;;;8.70;99.90;;;;;;1939753;74;21118;-75
2022/02/24 09:22:00;;;;;;;6.28;3.90;;;9.20;99.90;;;;;;1939647;74;21061;-76
2022/02/24 09:24:47;;;;;;;7.42;4.50;;;9.10;99.90;;;;;;1939953;74;21204;-76
2022/02/24 09:27:14;;;;;;;6.78;3.80;;;9.00;99.90;;;;;;1918839;75;21400;-77
2022/02/24 09:29:42;;;;;;;6.67;4.55;;;9.10;99.90;;;;;;1918741;75;21121;-76
2022/02/24 09:32:09;;;;;;;6.62;4.65;;;9.40;99.90;;;;;;1913641;73;21076;-77
2022/02/24 09:34:37;;;;;;;7.33;3.62;;;9.20;99.90;;;;;;1905574;73;21547;-78
2022/02/24 09:37:05;;;;;;;7.97;4.03;;;9.20;99.90;;;;;;1918591;74;21545;-75
2022/02/24 09:39:32;;;;;;;5.22;3.90;;;9.50;99.90;;;;;;1918666;75;21178;-75
2022/02/24 09:42:00;;;;;;;8.90;4.35;;;9.60;99.90;;;;;;1918771;75;21085;-75
2022/02/24 09:44:27;;;;;;;8.15;4.37;;;9.30;99.90;;;;;;1918701;75;21035;-75
2022/02/24 09:46:54;;;;;;;6.25;4.25;;;9.40;99.90;;;;;;1918815;75;21105;-75
2022/02/24 09:49:22;;;;;;;8.33;4.70;;;9.60;99.90;;;;;;1882627;75;21039;-76
2022/02/24 09:51:49;;;;;;;18.05;4.08;;;9.70;99.90;;;;;;1918644;75;21058;-75
2022/02/24 09:54:16;;;;;;;8.08;4.00;;;10.30;99.90;;;;;;1918803;75;21189;-76
2022/02/24 09:56:44;;;;;;;10.10;4.28;;;10.50;99.90;;;;;;1919039;75;21191;-76
2022/02/24 09:59:13;;;;;;;12.35;4.53;;;10.70;99.90;;;;;;1918902;75;21416;-76
2022/02/24 10:01:40;;;;;;;26.27;3.90;;;10.70;99.90;;;;;;1918917;73;21176;-76
2022/02/24 10:04:09;;;;;;;8.15;4.22;;;11.00;99.90;;;;;;1918898;75;21117;-76
2022/02/24 10:06:41;;;;;;;13.10;4.40;;;11.30;99.90;;;;;;1918916;75;21043;-76
2022/02/24 10:09:09;;;;;;;5.92;3.85;;;11.40;99.90;;;;;;1918898;75;21096;-77
2022/02/24 10:11:39;;;;;;;13.28;3.70;;;11.40;99.90;;;;;;1918993;75;21105;-76
2022/02/24 10:14:10;;;;;;;7.10;4.03;;;11.60;99.90;;;;;;1919089;75;21076;-77
2022/02/24 10:17:02;;;;;;;5.50;3.37;;;11.90;99.90;;;;;;1919180;75;21052;-80
2022/02/24 10:19:39;;;;;;;3.58;2.90;;;12.30;99.90;;;;;;1882642;76;21180;-76
2022/02/24 10:22:15;;;;;;;7.70;3.42;;;13.10;99.90;;;;;;1882619;76;21073;-76
2022/02/24 10:24:44;;;;;;;5.55;3.50;;;13.40;99.90;;;;;;1901371;75;21489;-77
2022/02/24 10:27:20;;;;;;;8.10;3.50;;;13.80;99.90;;;;;;1919069;75;21035;-76
2022/02/24 10:30:08;;;;;;;5.50;2.87;;;14.50;99.90;;;;;;1912934;75;21035;-75
2022/02/24 10:32:41;;;;;;;7.67;2.83;;;14.70;99.90;;;;;;1919202;75;21084;-74
2022/02/24 10:35:28;;;;;;;8.13;2.83;;;15.20;99.90;;;;;;1918908;75;21112;-75
2022/02/24 10:38:09;;;;;;;6.97;2.35;;;15.70;99.90;;;;;;1919381;75;21036;-75
2022/02/24 10:40:39;;;;;;;7.05;2.62;;;15.50;99.90;;;;;;1919808;75;21019;-74
2022/02/24 10:43:27;;;;;;;7.50;2.52;;;15.60;99.90;;;;;;1919852;75;21039;-73
2022/02/24 10:46:08;;;;;;;8.28;2.75;;;15.90;99.90;;;;;;1919691;75;21016;-75
2022/02/24 10:48:53;;;;;;;5.55;2.77;;;15.50;99.90;;;;;;1919951;75;21104;-74
2022/02/24 10:51:25;;;;;;;7.28;2.70;;;15.30;99.90;;;;;;1919592;75;21079;-75
2022/02/24 10:54:07;;;;;;;7.22;2.62;;;15.90;99.90;;;;;;1889578;75;21036;-74
2022/02/24 10:56:37;;;;;;;3.87;2.20;;;15.60;99.90;;;;;;1915228;75;21034;-76
2022/02/24 10:59:04;;;;;;;3.67;2.00;;;15.70;99.90;;;;;;1922279;75;21086;-75
2022/02/24 11:01:33;;;;;;;3.58;1.55;;;15.50;99.90;;;;;;1922408;75;21071;-77
2022/02/24 11:04:02;;;;;;;4.00;1.30;;;15.40;99.90;;;;;;1922386;74;21079;-82
2022/02/24 11:06:33;;;;;;;2.15;1.27;;;15.30;99.90;;;;;;1920422;75;21007;-78
2022/02/24 11:09:00;;;;;;;;;;;15.40;99.90;;;;;;1923716;75;21133;-77
2022/02/24 11:11:30;;;;;;;7.53;1.42;;;15.30;99.90;;;;;;1919839;75;20125;-77
2022/02/24 11:13:59;;;;;;;3.52;1.60;;;15.10;99.90;;;;;;1919589;75;21497;-76
2022/02/24 11:16:26;;;;;;;2.77;1.35;;;15.30;99.90;;;;;;1919371;75;21046;-75
2022/02/24 11:18:56;;;;;;;2.15;1.20;;;15.50;99.90;;;;;;1919282;75;21423;-76
2022/02/24 11:21:23;;;;;;;3.40;1.50;;;15.20;99.90;;;;;;1919348;73;21162;-76
2022/02/24 11:23:51;;;;;;;1.32;1.00;;;15.20;99.90;;;;;;1919138;75;21078;-77
2022/02/24 11:26:39;;;;;;;3.08;1.05;;;14.90;99.90;;;;;;1919183;75;21113;-76
2022/02/24 11:29:16;;;;;;;7.67;1.25;;;14.80;99.90;;;;;;1919064;75;21049;-75
2022/02/24 11:31:55;;;;;;;2.55;1.10;;;14.70;99.90;;;;;;1914694;75;21133;-78
2022/02/24 11:35:10;;;;;;;3.05;1.27;;;14.80;99.90;;;;;;1919209;75;21420;-78
2022/02/24 11:37:47;;;;;;;1.30;0.90;;;15.00;99.90;;;;;;1919206;75;21129;-76
2022/02/24 11:40:26;;;;;;;2.67;1.42;;;15.30;99.90;;;;;;1919160;75;21035;-77
2022/02/24 11:43:05;;;;;;;1.52;1.05;;;15.60;99.90;;;;;;1919199;75;21093;-76
2022/02/24 11:45:38;;;;;;;3.27;1.20;;;15.60;99.90;;;;;;1916915;75;21112;-78
2022/02/24 11:48:14;;;;;;;1.47;1.10;;;15.60;99.90;;;;;;1916810;75;21031;-79
2022/02/24 11:50:43;;;;;;;6.05;1.47;;;15.30;99.90;;;;;;1919248;75;21054;-78
2022/02/24 11:53:28;;;;;;;6.70;1.40;;;15.30;99.90;;;;;;1919117;75;21102;-80
2022/02/24 11:55:58;;;;;;;3.65;1.00;;;15.60;99.90;;;;;;1919249;75;21026;-82
2022/02/24 11:58:46;;;;;;;27.73;3.02;;;15.60;99.90;;;;;;1919162;75;21039;-79
2022/02/24 12:01:38;;;;;;;2.77;0.85;;;15.70;99.90;;;;;;1919005;75;21392;-81
2022/02/24 12:04:06;;;;;;;3.12;1.05;;;15.60;99.90;;;;;;1918735;73;21481;-79
2022/02/24 12:06:40;;;;;;;6.33;1.15;;;15.40;99.90;;;;;;1919473;75;21120;-79
2022/02/24 12:09:11;;;;;;;1.85;1.07;;;15.40;99.90;;;;;;1919626;75;21059;-80
2022/02/24 12:12:03;;;;;;;3.55;1.10;;;15.00;99.90;;;;;;1889317;75;21020;-83
2022/02/24 12:14:36;;;;;;;2.55;1.07;;;14.80;99.90;;;;;;1897685;75;21160;-79
2022/02/24 12:17:06;;;;;;;1.82;1.05;;;14.50;99.90;;;;;;1919544;75;21089;-79
2022/02/24 12:19:45;;;;;;;3.12;1.17;;;14.50;99.90;;;;;;1919928;75;21031;-81
2022/02/24 12:22:17;;;;;;;3.50;1.10;;;14.60;99.90;;;;;;1919536;75;21019;-77
2022/02/24 12:24:47;;;;;;;1.12;0.98;;;14.50;99.90;;;;;;1919549;75;21073;-79
2022/02/24 12:27:33;;;;;;;;;;;14.50;99.90;;;;;;1922428;75;21043;-84
2022/02/24 12:30:05;;;;;;;3.00;1.20;;;14.60;99.90;;;;;;1919552;75;20145;-78
2022/02/24 12:33:04;;;;;;;1.30;1.20;;;14.60;99.90;;;;;;1919517;75;21498;-78
2022/02/24 12:35:34;;;;;;;2.80;1.27;;;14.80;99.90;;;;;;1919404;75;21031;-76
2022/02/24 12:38:03;;;;;;;4.50;1.20;;;15.00;99.90;;;;;;1888957;75;21138;-76
2022/02/24 12:40:33;;;;;;;1.87;0.95;;;15.20;99.90;;;;;;1919604;75;21147;-76
2022/02/24 12:43:03;;;;;;;3.17;1.05;;;14.90;99.90;;;;;;1919770;75;21090;-80
2022/02/24 12:45:31;;;;;;;3.60;1.22;;;14.80;99.90;;;;;;1919449;75;21082;-78
2022/02/24 12:48:00;;;;;;;3.67;0.98;;;14.70;99.90;;;;;;1919416;75;21046;-81
2022/02/24 12:50:33;;;;;;;6.00;1.05;;;14.80;99.90;;;;;;1919579;75;21101;-73
2022/02/24 12:53:13;;;;;;;2.12;0.93;;;14.80;99.90;;;;;;1919137;73;21067;-74
2022/02/24 12:55:41;;;;;;;3.30;1.20;;;14.90;99.90;;;;;;1907769;75;21063;-78
2022/02/24 12:58:11;;;;;;;7.70;1.20;;;14.90;99.90;;;;;;1919104;75;21046;-75
2022/02/24 13:00:40;;;;;;;4.55;1.20;;;15.10;99.90;;;;;;1919687;74;21118;-74
2022/02/24 13:03:09;;;;;;;4.00;1.10;;;14.70;99.90;;;;;;1919520;75;21396;-81
2022/02/24 13:05:48;;;;;;;1.67;1.17;;;14.70;99.90;;;;;;1919274;75;21031;-75